Time;durP1;ratioP1;P1;durP2;ratioP2;P2;SDS_P1;SDS_P2;PMS_P1;PMS_P2;Temp;Humidity;BMP_temperature;BMP_pressure;BME280_temperature;BME280_humidity;BME280_pressure;Samples;Min_cycle;Max_cycle;Signal;HPM_P1;HPM_P2
2021/05/10 00:00:12;;;;;;;3.25;2.30;;;16.70;68.80;;;;;;5136408;27;20019;-68
2021/05/10 00:02:38;;;;;;;6.53;2.78;;;16.70;69.30;;;;;;5136293;27;20027;-68
2021/05/10 00:05:04;;;;;;;8.77;2.83;;;16.70;69.10;;;;;;5136522;27;20157;-68
2021/05/10 00:07:29;;;;;;;8.40;3.53;;;16.70;69.30;;;;;;5136129;27;20047;-68
2021/05/10 00:09:55;;;;;;;8.70;3.25;;;16.70;68.70;;;;;;5136058;27;20462;-68
2021/05/10 00:12:21;;;;;;;6.80;2.88;;;16.70;68.60;;;;;;5135803;27;20119;-67
2021/05/10 00:14:48;;;;;;;4.85;3.10;;;16.70;68.80;;;;;;5135855;27;20073;-68
2021/05/10 00:17:14;;;;;;;4.80;3.15;;;16.70;69.30;;;;;;5136156;27;20023;-68
2021/05/10 00:19:40;;;;;;;4.43;2.83;;;16.60;69.00;;;;;;5135883;27;20027;-67
2021/05/10 00:22:07;;;;;;;8.40;3.28;;;16.60;69.40;;;;;;5134535;27;20028;-68
2021/05/10 00:24:33;;;;;;;6.22;2.78;;;16.60;69.90;;;;;;5135786;27;20054;-68
2021/05/10 00:26:58;;;;;;;4.03;2.50;;;16.60;69.00;;;;;;5135913;27;20102;-67
2021/05/10 00:29:24;;;;;;;4.80;2.60;;;16.50;68.50;;;;;;5135619;27;20505;-68
2021/05/10 00:31:50;;;;;;;5.13;2.70;;;16.50;69.30;;;;;;5135467;27;20045;-68
2021/05/10 00:34:16;;;;;;;5.60;2.42;;;16.50;69.60;;;;;;5135577;27;20023;-67
2021/05/10 00:36:42;;;;;;;5.88;2.92;;;16.40;69.30;;;;;;5135703;27;20032;-68
2021/05/10 00:39:08;;;;;;;7.20;2.90;;;16.40;69.20;;;;;;5135791;27;20463;-68
2021/05/10 00:41:34;;;;;;;4.50;2.70;;;16.40;69.40;;;;;;5135556;27;20023;-68
2021/05/10 00:44:00;;;;;;;7.38;2.55;;;16.40;69.30;;;;;;5135225;27;20483;-68
2021/05/10 00:46:26;;;;;;;3.40;2.58;;;16.40;69.20;;;;;;5135485;27;20153;-68
2021/05/10 00:48:52;;;;;;;6.25;2.88;;;16.40;70.00;;;;;;5135262;27;20104;-68
2021/05/10 00:51:18;;;;;;;7.40;2.25;;;16.40;69.40;;;;;;5135292;27;20023;-68
2021/05/10 00:53:44;;;;;;;3.72;2.53;;;16.40;69.50;;;;;;5135135;27;20034;-68
2021/05/10 00:56:10;;;;;;;4.43;2.97;;;16.40;69.40;;;;;;5135542;27;20039;-68
2021/05/10 00:58:37;;;;;;;4.75;2.30;;;16.40;69.50;;;;;;5133592;27;20481;-68
2021/05/10 01:01:03;;;;;;;10.10;2.33;;;16.40;69.60;;;;;;5132342;27;20483;-68
2021/05/10 01:03:30;;;;;;;4.97;2.40;;;16.40;70.00;;;;;;5132211;27;20020;-68
2021/05/10 01:05:56;;;;;;;4.72;2.50;;;16.30;69.70;;;;;;5134609;27;20076;-68
2021/05/10 01:08:22;;;;;;;3.67;2.40;;;16.30;69.50;;;;;;5134682;27;20518;-68
2021/05/10 01:10:48;;;;;;;5.60;2.35;;;16.30;69.60;;;;;;5134983;27;20015;-67
2021/05/10 01:13:16;;;;;;;6.03;2.40;;;16.30;69.60;;;;;;5134672;27;20525;-68
2021/05/10 01:15:42;;;;;;;4.50;2.53;;;16.40;72.80;;;;;;5134877;27;20019;-68
2021/05/10 01:18:08;;;;;;;4.50;2.30;;;16.40;73.50;;;;;;5134746;27;20023;-68
2021/05/10 01:20:36;;;;;;;6.32;2.35;;;16.20;69.40;;;;;;5134104;27;20090;-68
2021/05/10 01:23:01;;;;;;;9.70;2.47;;;16.20;70.30;;;;;;5134771;27;20433;-68
2021/05/10 01:25:31;;;;;;;5.32;2.72;;;16.20;70.50;;;;;;5134580;27;20050;-68
2021/05/10 01:27:59;;;;;;;6.53;2.80;;;16.20;70.50;;;;;;5134306;27;20019;-68
2021/05/10 01:30:40;;;;;;;7.80;2.28;;;16.20;70.50;;;;;;5134756;27;20020;-68
2021/05/10 01:33:08;;;;;;;3.47;2.38;;;16.20;70.90;;;;;;5133950;27;20111;-68
2021/05/10 01:35:36;;;;;;;4.68;3.17;;;16.20;70.40;;;;;;5134184;27;20023;-68
2021/05/10 01:38:02;;;;;;;6.63;2.70;;;16.20;70.20;;;;;;5134272;27;20034;-68
2021/05/10 01:40:29;;;;;;;7.25;2.55;;;16.20;69.80;;;;;;5134264;27;20092;-68
2021/05/10 01:42:55;;;;;;;7.57;3.05;;;16.20;69.80;;;;;;5133948;27;20031;-68
2021/05/10 01:45:22;;;;;;;4.68;2.60;;;16.20;70.90;;;;;;5134527;27;20383;-68
2021/05/10 01:47:48;;;;;;;5.97;2.35;;;16.20;70.80;;;;;;5134260;27;20031;-68
2021/05/10 01:50:19;;;;;;;8.23;2.67;;;16.10;71.00;;;;;;5133986;27;20019;-68
2021/05/10 01:52:46;;;;;;;8.15;3.15;;;16.10;70.50;;;;;;5134092;27;20027;-68
2021/05/10 01:55:12;;;;;;;6.00;2.40;;;16.10;70.70;;;;;;5134054;27;20019;-68
2021/05/10 01:57:39;;;;;;;4.82;2.50;;;16.00;70.50;;;;;;5133871;27;20102;-68
2021/05/10 02:00:12;;;;;;;7.32;2.70;;;16.00;70.80;;;;;;5133897;27;20027;-68
2021/05/10 02:02:39;;;;;;;5.43;2.80;;;16.00;70.80;;;;;;5133060;27;20038;-68
2021/05/10 02:05:07;;;;;;;6.03;3.00;;;16.00;70.70;;;;;;5134420;27;20019;-68
2021/05/10 02:07:44;;;;;;;5.60;3.47;;;15.90;71.40;;;;;;5134205;28;20053;-68
2021/05/10 02:10:13;;;;;;;5.00;3.20;;;15.90;71.40;;;;;;5134056;27;20102;-68
2021/05/10 02:12:40;;;;;;;4.22;3.10;;;15.90;71.60;;;;;;5133825;27;20403;-68
2021/05/10 02:15:08;;;;;;;5.05;2.60;;;15.90;71.40;;;;;;5134204;28;20043;-68
2021/05/10 02:17:35;;;;;;;6.50;2.70;;;15.80;71.20;;;;;;5133671;28;20027;-68
2021/05/10 02:20:02;;;;;;;7.30;2.90;;;15.80;71.60;;;;;;5133838;28;20047;-68
2021/05/10 02:22:28;;;;;;;6.38;2.60;;;15.80;71.60;;;;;;5133836;28;20020;-68
2021/05/10 02:24:54;;;;;;;7.10;3.17;;;15.80;71.30;;;;;;5133897;28;20026;-69
2021/05/10 02:27:20;;;;;;;5.72;3.00;;;15.70;71.60;;;;;;5133875;28;20372;-68
2021/05/10 02:29:45;;;;;;;4.30;2.80;;;15.70;71.80;;;;;;5133542;28;20027;-68
2021/05/10 02:32:11;;;;;;;5.15;3.00;;;15.70;71.70;;;;;;5133628;28;20361;-68
2021/05/10 02:34:37;;;;;;;6.13;2.92;;;15.60;71.90;;;;;;5133817;28;20023;-68
2021/05/10 02:37:03;;;;;;;4.97;2.60;;;15.60;71.70;;;;;;5132467;28;20110;-68
2021/05/10 02:39:29;;;;;;;5.60;3.40;;;15.60;71.50;;;;;;5133596;28;20019;-68
2021/05/10 02:41:55;;;;;;;6.35;3.10;;;15.60;71.50;;;;;;5133876;28;20011;-69
2021/05/10 02:44:20;;;;;;;4.57;3.13;;;15.60;71.10;;;;;;5134539;27;20056;-68
2021/05/10 02:46:46;;;;;;;5.70;2.65;;;15.50;71.10;;;;;;5137606;27;20051;-68
2021/05/10 02:49:12;;;;;;;3.75;3.03;;;15.50;71.00;;;;;;5136175;27;20030;-68
2021/05/10 02:51:38;;;;;;;9.13;3.03;;;15.50;71.00;;;;;;5137640;27;20072;-68
2021/05/10 02:54:04;;;;;;;7.28;2.78;;;15.40;71.00;;;;;;5137512;27;20027;-68
2021/05/10 02:56:29;;;;;;;8.73;3.00;;;15.40;71.50;;;;;;5137487;27;20607;-68
2021/05/10 02:58:55;;;;;;;5.00;2.85;;;15.30;71.90;;;;;;5137633;27;20032;-68
2021/05/10 03:01:21;;;;;;;4.93;3.15;;;15.30;71.90;;;;;;5137518;27;20027;-68
2021/05/10 03:03:47;;;;;;;8.65;2.95;;;15.30;71.80;;;;;;5137463;27;20383;-68
2021/05/10 03:06:13;;;;;;;10.05;3.50;;;15.30;72.40;;;;;;5137425;27;20023;-68
2021/05/10 03:08:38;;;;;;;7.15;2.75;;;15.30;72.50;;;;;;5137065;27;20392;-68
2021/05/10 03:11:04;;;;;;;4.95;2.67;;;15.30;72.70;;;;;;5137319;27;20501;-68
2021/05/10 03:13:30;;;;;;;8.35;3.10;;;15.30;72.40;;;;;;5135862;27;20168;-68
2021/05/10 03:15:57;;;;;;;6.88;3.00;;;15.30;72.30;;;;;;5137383;27;20027;-68
2021/05/10 03:18:23;;;;;;;4.03;2.88;;;15.30;72.70;;;;;;5136953;27;20039;-68
2021/05/10 03:20:49;;;;;;;8.40;2.88;;;15.20;72.60;;;;;;5136858;27;20031;-67
2021/05/10 03:23:15;;;;;;;9.20;2.97;;;15.20;73.20;;;;;;5136797;27;20076;-67
2021/05/10 03:25:40;;;;;;;5.38;3.15;;;15.20;73.10;;;;;;5137226;27;20042;-68
2021/05/10 03:28:07;;;;;;;8.23;3.03;;;15.20;72.50;;;;;;5137360;27;20031;-68
2021/05/10 03:30:32;;;;;;;6.05;2.70;;;15.30;72.40;;;;;;5136903;27;20024;-68
2021/05/10 03:32:58;;;;;;;5.78;2.63;;;15.30;72.30;;;;;;5136992;27;20395;-68
2021/05/10 03:35:24;;;;;;;5.78;2.80;;;15.30;73.30;;;;;;5136820;27;20019;-67
2021/05/10 03:37:50;;;;;;;5.70;3.00;;;15.30;73.30;;;;;;5136588;27;20038;-67
2021/05/10 03:40:16;;;;;;;6.82;3.13;;;15.30;73.10;;;;;;5136648;27;20029;-68
2021/05/10 03:42:43;;;;;;;6.32;3.58;;;15.30;72.90;;;;;;5136879;27;20034;-67
2021/05/10 03:45:10;;;;;;;7.10;3.13;;;15.30;72.70;;;;;;5136532;27;20059;-68
2021/05/10 03:47:40;;;;;;;7.30;3.17;;;15.30;72.60;;;;;;5137133;27;20016;-68
2021/05/10 03:50:10;;;;;;;8.18;2.92;;;15.30;72.50;;;;;;5136462;27;20019;-68
2021/05/10 03:52:35;;;;;;;8.18;2.97;;;15.30;73.20;;;;;;5136559;27;20035;-68
2021/05/10 03:55:02;;;;;;;8.68;2.97;;;15.30;73.40;;;;;;5136596;27;20046;-68
2021/05/10 03:57:28;;;;;;;8.13;3.17;;;15.30;73.50;;;;;;5136549;27;20386;-67
2021/05/10 03:59:53;;;;;;;4.85;2.92;;;15.20;73.50;;;;;;5136379;27;20019;-68
2021/05/10 04:02:20;;;;;;;8.13;3.13;;;15.30;74.10;;;;;;5136387;27;20050;-67
2021/05/10 04:15:29;;;;;;;9.73;3.40;;;15.20;73.00;;;;;;5136065;27;20145;-68
2021/05/10 04:17:54;;;;;;;5.68;3.10;;;15.20;72.90;;;;;;5135737;27;20044;-68
2021/05/10 04:20:20;;;;;;;5.90;3.20;;;15.20;72.80;;;;;;5135900;27;20025;-69
2021/05/10 04:22:46;;;;;;;11.85;3.20;;;15.20;73.40;;;;;;5136324;27;20019;-68
2021/05/10 04:25:12;;;;;;;6.07;3.00;;;15.20;73.70;;;;;;5135843;27;20019;-68
2021/05/10 04:27:37;;;;;;;6.50;2.97;;;15.20;73.50;;;;;;5135851;27;20109;-69
2021/05/10 04:30:04;;;;;;;12.63;3.50;;;15.20;73.60;;;;;;5135643;27;20106;-68
2021/05/10 04:32:30;;;;;;;9.68;3.72;;;15.20;73.80;;;;;;5135575;27;20110;-68
2021/05/10 04:34:55;;;;;;;9.27;3.45;;;15.20;74.00;;;;;;5135691;27;20520;-68
2021/05/10 04:37:21;;;;;;;8.02;3.22;;;15.20;74.30;;;;;;5135631;27;20031;-68
2021/05/10 04:39:47;;;;;;;4.75;3.42;;;15.20;74.00;;;;;;5135473;27;20364;-68
2021/05/10 04:42:13;;;;;;;6.45;3.35;;;15.20;74.10;;;;;;5135686;27;20079;-68
2021/05/10 04:44:38;;;;;;;8.00;3.17;;;15.20;74.50;;;;;;5135414;27;20519;-68
2021/05/10 04:47:04;;;;;;;5.18;3.08;;;15.30;74.60;;;;;;5135215;27;20023;-68
2021/05/10 04:49:30;;;;;;;8.95;3.15;;;15.30;74.60;;;;;;5135289;27;20054;-68
2021/05/10 04:51:55;;;;;;;7.00;3.50;;;15.40;75.20;;;;;;5135199;27;20035;-68
2021/05/10 04:54:21;;;;;;;7.03;3.38;;;15.40;74.90;;;;;;5135602;27;20019;-68
2021/05/10 04:56:47;;;;;;;10.30;3.83;;;15.40;74.30;;;;;;5135139;27;20027;-68
2021/05/10 04:59:12;;;;;;;8.75;3.70;;;15.50;75.10;;;;;;5135020;27;20029;-68
2021/05/10 05:01:38;;;;;;;6.90;3.90;;;15.50;74.80;;;;;;5135498;27;20090;-68
2021/05/10 05:04:04;;;;;;;8.18;3.47;;;15.50;74.50;;;;;;5135278;27;20482;-68
2021/05/10 05:06:30;;;;;;;9.13;3.83;;;15.60;74.30;;;;;;5135121;27;20078;-68
2021/05/10 05:08:55;;;;;;;8.23;4.13;;;15.60;75.90;;;;;;5134194;27;20123;-68
2021/05/10 05:11:21;;;;;;;6.40;4.13;;;15.60;74.80;;;;;;5134765;27;20055;-68
2021/05/10 05:13:47;;;;;;;7.97;3.90;;;15.70;74.30;;;;;;5134827;27;20463;-68
2021/05/10 05:16:12;;;;;;;7.90;4.10;;;15.70;74.60;;;;;;5134877;27;20055;-68
2021/05/10 05:18:38;;;;;;;8.80;3.60;;;15.80;74.80;;;;;;5135181;27;20527;-68
2021/05/10 05:21:05;;;;;;;4.47;3.45;;;15.80;74.80;;;;;;5134832;27;20111;-69
2021/05/10 05:23:30;;;;;;;10.15;3.50;;;15.80;74.50;;;;;;5134759;27;20026;-68
2021/05/10 05:25:58;;;;;;;6.00;3.92;;;15.80;74.40;;;;;;5134587;27;20023;-68
2021/05/10 05:28:26;;;;;;;5.45;3.63;;;15.80;74.40;;;;;;5134556;27;20052;-68
2021/05/10 05:30:53;;;;;;;11.70;4.00;;;15.90;74.70;;;;;;5133367;27;20023;-68
2021/05/10 05:33:18;;;;;;;15.10;3.95;;;15.90;74.50;;;;;;5134677;27;20479;-67
2021/05/10 05:35:44;;;;;;;9.50;4.28;;;15.90;73.80;;;;;;5134539;27;20087;-68
2021/05/10 05:38:11;;;;;;;11.52;5.53;;;15.90;73.70;;;;;;5134545;27;20023;-68
2021/05/10 05:40:42;;;;;;;15.90;4.43;;;15.90;74.30;;;;;;5134777;27;20102;-67
2021/05/10 05:43:09;;;;;;;14.30;5.03;;;16.00;75.10;;;;;;5134607;27;20011;-68
2021/05/10 05:45:39;;;;;;;10.57;4.72;;;15.90;75.20;;;;;;5134406;27;20030;-67
2021/05/10 05:48:08;;;;;;;18.80;5.10;;;16.00;75.70;;;;;;5134335;27;20127;-68
2021/05/10 05:50:35;;;;;;;21.30;4.85;;;16.00;75.20;;;;;;5134168;27;20088;-68
2021/05/10 05:53:02;;;;;;;10.80;4.22;;;16.00;74.80;;;;;;5134387;27;20034;-68
2021/05/10 05:55:28;;;;;;;12.45;4.57;;;16.10;73.90;;;;;;5133094;27;20539;-69
2021/05/10 05:57:54;;;;;;;16.75;4.70;;;16.10;74.30;;;;;;5134275;27;20065;-67
2021/05/10 06:00:21;;;;;;;17.75;5.32;;;16.10;74.70;;;;;;5134271;27;20083;-68
2021/05/10 06:02:47;;;;;;;11.38;4.85;;;16.10;74.20;;;;;;5134419;27;20019;-68
2021/05/10 06:05:13;;;;;;;13.07;4.68;;;16.20;74.10;;;;;;5134217;27;20030;-67
2021/05/10 06:07:44;;;;;;;10.85;4.30;;;16.20;72.60;;;;;;5134015;28;20051;-68
2021/05/10 06:10:12;;;;;;;8.55;4.20;;;16.20;73.00;;;;;;5134104;28;20035;-68
2021/05/10 06:12:38;;;;;;;10.65;4.63;;;16.30;73.20;;;;;;5134136;28;20046;-68
2021/05/10 06:15:05;;;;;;;7.05;3.92;;;16.30;73.10;;;;;;5133780;28;20494;-68
2021/05/10 06:17:31;;;;;;;9.88;4.25;;;16.40;72.90;;;;;;5133776;28;20436;-68
2021/05/10 06:19:57;;;;;;;8.50;4.00;;;16.50;72.80;;;;;;5135941;27;20051;-68
2021/05/10 06:22:23;;;;;;;7.30;4.10;;;16.50;72.30;;;;;;5137917;27;20090;-68
2021/05/10 06:24:49;;;;;;;6.93;3.63;;;16.50;72.10;;;;;;5137763;27;20027;-69
2021/05/10 06:27:14;;;;;;;11.02;4.00;;;16.60;71.90;;;;;;5137286;27;20027;-69
2021/05/10 06:29:40;;;;;;;15.63;4.07;;;16.60;71.80;;;;;;5136984;27;20114;-69
2021/05/10 06:32:06;;;;;;;8.50;4.00;;;16.70;71.70;;;;;;5137149;27;20033;-68
2021/05/10 06:34:32;;;;;;;10.15;3.80;;;16.70;71.50;;;;;;5137746;27;20358;-68
2021/05/10 06:36:57;;;;;;;18.83;4.28;;;16.80;71.30;;;;;;5138040;27;20031;-69
2021/05/10 06:39:24;;;;;;;13.20;3.50;;;16.80;71.00;;;;;;5137190;27;20023;-69
2021/05/10 06:41:50;;;;;;;10.20;4.60;;;16.90;71.20;;;;;;5137507;27;20019;-68
2021/05/10 06:44:15;;;;;;;11.30;3.78;;;16.90;70.40;;;;;;5115852;27;20028;-68
2021/05/10 06:46:41;;;;;;;8.77;3.42;;;17.00;70.10;;;;;;5115502;28;20019;-68
2021/05/10 06:49:07;;;;;;;7.30;3.28;;;17.10;69.10;;;;;;5116797;28;20058;-68
2021/05/10 06:51:33;;;;;;;10.50;3.22;;;17.20;68.80;;;;;;5116810;28;20020;-68
2021/05/10 06:53:59;;;;;;;8.90;3.75;;;17.30;68.50;;;;;;5117107;28;20077;-68
2021/05/10 06:56:25;;;;;;;10.68;3.65;;;17.30;68.70;;;;;;5117338;28;20020;-68
2021/05/10 06:58:50;;;;;;;6.95;3.30;;;17.40;67.70;;;;;;5117052;28;20027;-69
2021/05/10 07:01:16;;;;;;;8.43;3.65;;;17.50;67.50;;;;;;5116934;28;20016;-69
2021/05/10 07:03:42;;;;;;;13.98;3.80;;;17.60;68.30;;;;;;5116546;28;20401;-68
2021/05/10 07:06:08;;;;;;;8.15;3.50;;;17.70;68.40;;;;;;5116119;28;20098;-69
2021/05/10 07:08:33;;;;;;;6.97;3.28;;;17.80;69.10;;;;;;5115691;28;20054;-68
2021/05/10 07:10:59;;;;;;;5.95;3.03;;;17.80;68.70;;;;;;5116394;28;20048;-68
2021/05/10 07:13:25;;;;;;;9.90;3.00;;;17.90;67.70;;;;;;5115699;28;20506;-68
2021/05/10 07:15:51;;;;;;;6.68;3.00;;;18.00;66.90;;;;;;5116042;28;20023;-68
2021/05/10 07:18:18;;;;;;;10.32;2.58;;;18.10;67.00;;;;;;5116698;28;20407;-69
2021/05/10 07:20:45;;;;;;;7.95;2.75;;;18.20;65.30;;;;;;5114182;28;20051;-68
2021/05/10 07:23:14;;;;;;;6.03;2.38;;;18.20;65.10;;;;;;5114353;28;20032;-68
2021/05/10 07:25:45;;;;;;;10.10;2.50;;;18.30;65.00;;;;;;5114216;28;20011;-69
2021/05/10 07:28:13;;;;;;;7.43;2.25;;;18.40;64.70;;;;;;5116095;28;20052;-68
2021/05/10 07:30:39;;;;;;;6.35;2.40;;;18.50;64.80;;;;;;5115281;28;20024;-69
2021/05/10 07:33:05;;;;;;;9.55;2.10;;;18.60;63.50;;;;;;5116066;28;20062;-69
2021/05/10 07:35:34;;;;;;;9.07;2.33;;;18.70;62.70;;;;;;5116050;28;20475;-69
2021/05/10 07:38:01;;;;;;;5.68;1.67;;;18.80;61.70;;;;;;5115795;28;20116;-68
2021/05/10 07:40:31;;;;;;;6.82;1.67;;;18.90;62.60;;;;;;5116145;28;20104;-69
2021/05/10 07:43:01;;;;;;;6.15;2.13;;;18.90;60.90;;;;;;5115782;28;20476;-69
2021/05/10 07:45:32;;;;;;;7.35;1.90;;;19.00;61.30;;;;;;5115900;28;20469;-69
2021/05/10 07:48:00;;;;;;;6.15;2.03;;;19.10;61.00;;;;;;5114675;28;20535;-68
2021/05/10 07:50:27;;;;;;;6.43;1.60;;;19.20;59.80;;;;;;5115515;28;20023;-69
2021/05/10 07:52:54;;;;;;;4.95;1.85;;;19.30;59.20;;;;;;5115725;28;20024;-69
2021/05/10 07:55:21;;;;;;;5.50;1.70;;;19.30;58.70;;;;;;5115764;28;20050;-69
2021/05/10 07:57:47;;;;;;;4.47;1.42;;;19.40;58.50;;;;;;5115504;28;20028;-69
2021/05/10 08:00:17;;;;;;;10.73;1.80;;;19.50;58.20;;;;;;5115996;28;20152;-69
2021/05/10 08:02:44;;;;;;;2.50;1.40;;;19.60;57.90;;;;;;5115722;28;20055;-69
2021/05/10 08:05:12;;;;;;;3.03;1.17;;;19.70;57.30;;;;;;5115768;28;20077;-69
2021/05/10 08:07:37;;;;;;;2.85;1.08;;;19.70;55.90;;;;;;5115381;28;20046;-69
2021/05/10 08:10:08;;;;;;;5.10;1.20;;;19.80;55.40;;;;;;5115672;28;20024;-69
2021/05/10 08:12:34;;;;;;;4.13;1.25;;;19.90;53.60;;;;;;5115599;28;20047;-68
2021/05/10 08:15:00;;;;;;;3.80;1.15;;;20.00;53.90;;;;;;5115530;28;20123;-70
2021/05/10 08:17:28;;;;;;;2.65;0.95;;;20.00;53.60;;;;;;5115829;28;20055;-70
2021/05/10 08:19:54;;;;;;;5.18;0.80;;;20.10;50.20;;;;;;5114882;28;20391;-69
2021/05/10 08:22:19;;;;;;;3.78;0.90;;;20.20;49.10;;;;;;5114856;28;20098;-69
2021/05/10 08:24:45;;;;;;;1.92;0.85;;;20.20;46.30;;;;;;5115172;28;20019;-69
2021/05/10 08:27:11;;;;;;;6.78;1.30;;;20.30;48.40;;;;;;5115120;28;20046;-71
2021/05/10 08:29:36;;;;;;;4.93;1.00;;;20.40;48.70;;;;;;5114764;28;20031;-70
2021/05/10 08:32:02;;;;;;;2.10;0.95;;;20.50;48.80;;;;;;5114448;28;20468;-69
2021/05/10 08:34:28;;;;;;;5.75;0.90;;;20.60;48.60;;;;;;5115083;28;20028;-69
2021/05/10 08:36:55;;;;;;;4.50;1.00;;;20.70;49.10;;;;;;5114823;28;20041;-67
2021/05/10 08:39:21;;;;;;;1.92;0.90;;;20.80;48.00;;;;;;5114523;28;20032;-67
2021/05/10 08:41:47;;;;;;;5.15;0.95;;;20.90;46.00;;;;;;5114044;28;20031;-67
2021/05/10 08:44:13;;;;;;;3.75;0.90;;;21.00;46.20;;;;;;5114909;28;20030;-69
2021/05/10 08:46:41;;;;;;;3.13;0.90;;;21.10;47.10;;;;;;5113582;28;20031;-69
2021/05/10 08:49:07;;;;;;;2.00;0.60;;;21.10;42.60;;;;;;5114348;28;20011;-69
2021/05/10 08:51:35;;;;;;;1.95;0.70;;;21.20;41.00;;;;;;5113990;28;20039;-70
2021/05/10 08:54:00;;;;;;;4.85;0.90;;;21.30;38.30;;;;;;5114245;28;20039;-68
2021/05/10 08:56:27;;;;;;;4.07;0.88;;;21.30;38.70;;;;;;5111990;28;20016;-69
2021/05/10 08:58:53;;;;;;;1.77;0.60;;;21.40;40.70;;;;;;5113089;28;20020;-69
2021/05/10 09:01:20;;;;;;;2.08;0.80;;;21.40;37.40;;;;;;5114384;28;20046;-69
2021/05/10 09:03:50;;;;;;;3.30;0.50;;;21.50;37.20;;;;;;5114598;28;20012;-69
2021/05/10 09:06:21;;;;;;;1.35;0.40;;;21.50;37.80;;;;;;5114589;28;20027;-69
2021/05/10 09:08:48;;;;;;;3.33;1.00;;;21.50;36.70;;;;;;5114265;28;20039;-69
2021/05/10 09:11:19;;;;;;;2.53;0.75;;;21.60;38.80;;;;;;5114581;28;20552;-69
2021/05/10 09:13:53;;;;;;;4.28;0.70;;;21.60;36.20;;;;;;5114245;28;20043;-69
2021/05/10 09:16:19;;;;;;;5.45;0.63;;;21.70;34.80;;;;;;5114317;28;20094;-69
2021/05/10 09:18:57;;;;;;;1.80;0.75;;;21.60;35.70;;;;;;5114411;28;20047;-69
2021/05/10 09:21:28;;;;;;;2.47;0.70;;;21.70;37.30;;;;;;5114346;28;20020;-69
2021/05/10 09:23:56;;;;;;;6.50;1.38;;;21.60;36.00;;;;;;5114374;28;20038;-68
2021/05/10 09:26:32;;;;;;;2.40;0.70;;;21.60;37.10;;;;;;5114145;28;20020;-69
2021/05/10 09:28:58;;;;;;;1.25;0.52;;;21.70;38.70;;;;;;5114042;28;20498;-69
2021/05/10 09:31:25;;;;;;;5.32;0.88;;;21.80;40.10;;;;;;5114228;28;20471;-69
2021/05/10 09:33:50;;;;;;;1.40;0.77;;;22.00;40.30;;;;;;5114231;28;20038;-69
2021/05/10 09:36:39;;;;;;;2.47;0.88;;;22.20;41.20;;;;;;5114001;28;20020;-69
2021/05/10 09:39:07;;;;;;;2.05;0.77;;;22.30;40.70;;;;;;5114111;28;20034;-69
2021/05/10 09:41:34;;;;;;;1.83;0.80;;;22.40;41.00;;;;;;5113998;28;20020;-69
2021/05/10 09:44:07;;;;;;;5.57;0.90;;;22.50;41.80;;;;;;5114154;28;20052;-69
2021/05/10 09:46:46;;;;;;;3.63;1.08;;;22.60;39.10;;;;;;5113979;28;20020;-69
2021/05/10 09:49:12;;;;;;;1.70;0.80;;;22.60;40.90;;;;;;5113568;28;20119;-69
2021/05/10 09:51:38;;;;;;;5.55;0.70;;;22.70;39.50;;;;;;5113657;28;20019;-68
2021/05/10 09:54:14;;;;;;;3.80;0.70;;;22.80;39.60;;;;;;5113622;28;20464;-70
2021/05/10 09:56:41;;;;;;;3.30;0.80;;;22.90;38.70;;;;;;5113878;28;20527;-69
2021/05/10 09:59:13;;;;;;;3.72;0.90;;;22.90;39.90;;;;;;5113767;28;20035;-69
2021/05/10 10:01:39;;;;;;;5.95;0.80;;;22.90;40.70;;;;;;5113913;28;20054;-68
2021/05/10 10:04:05;;;;;;;3.08;0.90;;;22.90;40.60;;;;;;5113715;28;20051;-67
2021/05/10 10:06:31;;;;;;;1.00;0.77;;;23.00;41.70;;;;;;5113749;28;20027;-68
2021/05/10 10:08:57;;;;;;;1.88;1.00;;;23.10;40.60;;;;;;5113579;28;20043;-69
2021/05/10 10:11:25;;;;;;;3.08;0.98;;;23.20;41.70;;;;;;5113946;28;20039;-69
2021/05/10 10:13:53;;;;;;;2.33;1.20;;;23.30;41.90;;;;;;5113377;28;20043;-68
2021/05/10 10:16:21;;;;;;;2.45;1.10;;;23.40;39.00;;;;;;5113372;28;20095;-68
2021/05/10 10:18:48;;;;;;;2.15;0.90;;;23.30;40.60;;;;;;5113672;28;20072;-68
2021/05/10 10:21:16;;;;;;;3.08;0.80;;;23.40;40.60;;;;;;5113808;28;20011;-67
2021/05/10 10:23:53;;;;;;;1.80;0.80;;;23.40;38.60;;;;;;5113375;28;20034;-68
2021/05/10 10:26:19;;;;;;;3.15;0.80;;;23.50;40.60;;;;;;5113424;28;20031;-69
2021/05/10 10:28:46;;;;;;;4.15;0.80;;;23.50;38.20;;;;;;5113622;28;20024;-69
2021/05/10 10:31:23;;;;;;;7.03;1.10;;;23.50;38.20;;;;;;5113328;28;20061;-69
2021/05/10 10:33:59;;;;;;;3.70;0.80;;;23.60;39.60;;;;;;5112801;28;20035;-68
2021/05/10 10:36:31;;;;;;;2.70;0.80;;;23.60;37.80;;;;;;5113256;28;20022;-68
2021/05/10 10:39:19;;;;;;;2.83;0.75;;;23.60;38.10;;;;;;5112874;28;20028;-69
2021/05/10 10:42:03;;;;;;;3.92;0.80;;;23.70;39.40;;;;;;5113341;28;20417;-67
2021/05/10 10:44:33;;;;;;;2.58;0.73;;;23.80;37.20;;;;;;5113483;28;20144;-67
2021/05/10 10:47:01;;;;;;;2.72;0.90;;;23.90;38.30;;;;;;5113432;28;20364;-66
2021/05/10 10:49:34;;;;;;;5.18;0.80;;;24.00;37.60;;;;;;5113179;28;20020;-67
2021/05/10 10:52:00;;;;;;;2.15;0.70;;;24.10;37.80;;;;;;5112854;28;20034;-66
2021/05/10 10:54:28;;;;;;;1.92;0.90;;;24.20;39.30;;;;;;5113198;28;20369;-68
2021/05/10 10:56:54;;;;;;;6.07;0.80;;;24.30;39.10;;;;;;5112532;28;20054;-68
2021/05/10 10:59:29;;;;;;;2.80;1.00;;;24.30;35.30;;;;;;5112111;28;20047;-68
2021/05/10 11:01:56;;;;;;;3.65;0.80;;;24.40;37.60;;;;;;5112605;28;20024;-67
2021/05/10 11:04:29;;;;;;;2.00;0.70;;;24.50;36.90;;;;;;5113169;28;20012;-68
2021/05/10 11:06:56;;;;;;;2.20;0.85;;;24.50;38.00;;;;;;5116252;28;20081;-66
2021/05/10 11:09:46;;;;;;;4.38;0.88;;;24.50;38.30;;;;;;5116728;28;20073;-68
2021/05/10 11:12:50;;;;;;;2.10;0.77;;;24.60;36.30;;;;;;5117281;28;20073;-69
2021/05/10 11:15:38;;;;;;;1.58;0.77;;;24.70;37.60;;;;;;5116925;28;20094;-69
2021/05/10 11:18:06;;;;;;;4.78;1.10;;;24.80;36.70;;;;;;5115460;28;20451;-68
2021/05/10 11:20:37;;;;;;;2.72;1.00;;;24.70;35.50;;;;;;5116581;28;20023;-67
2021/05/10 11:23:24;;;;;;;2.92;1.00;;;24.50;38.50;;;;;;5115534;28;20345;-67
2021/05/10 11:26:02;;;;;;;3.03;0.80;;;24.50;38.20;;;;;;5115940;28;20716;-67
2021/05/10 11:28:28;;;;;;;7.22;0.90;;;24.30;36.90;;;;;;5116186;28;20027;-66
2021/05/10 11:31:01;;;;;;;3.58;0.90;;;24.20;37.90;;;;;;5115922;28;20388;-67
2021/05/10 11:33:52;;;;;;;4.80;1.05;;;24.10;38.40;;;;;;5115899;28;20123;-67
2021/05/10 11:36:35;;;;;;;1.67;0.85;;;24.00;38.80;;;;;;5116109;28;20494;-68
2021/05/10 11:39:01;;;;;;;2.05;0.90;;;24.00;39.80;;;;;;5116088;28;20028;-66
2021/05/10 11:41:33;;;;;;;2.50;1.02;;;23.90;39.70;;;;;;5116030;28;20126;-66
2021/05/10 11:44:01;;;;;;;5.20;1.00;;;24.00;40.20;;;;;;5114909;28;20415;-67
2021/05/10 11:46:47;;;;;;;5.18;1.27;;;23.90;39.60;;;;;;5115541;28;20103;-67
2021/05/10 11:49:27;;;;;;;1.63;0.90;;;23.90;40.80;;;;;;5115647;28;20435;-66
2021/05/10 11:51:55;;;;;;;3.00;0.77;;;23.90;39.70;;;;;;5115563;28;20028;-64
2021/05/10 11:54:22;;;;;;;2.67;0.90;;;23.90;39.80;;;;;;5115644;28;20031;-65
2021/05/10 11:56:50;;;;;;;3.55;0.85;;;23.90;39.90;;;;;;5115908;28;20016;-66
2021/05/10 12:02:13;;;;;;;7.43;0.70;;;23.90;41.50;;;;;;5115669;28;20120;-66
2021/05/10 12:04:44;;;;;;;1.67;0.70;;;24.00;39.50;;;;;;5115016;28;20060;-67
2021/05/10 12:07:11;;;;;;;2.20;0.70;;;24.20;41.10;;;;;;5115075;28;20043;-65
2021/05/10 12:09:45;;;;;;;3.80;0.70;;;24.40;36.70;;;;;;5115247;28;20190;-64
2021/05/10 12:12:13;;;;;;;2.05;0.90;;;24.50;38.10;;;;;;5114809;28;20114;-65
2021/05/10 12:14:40;;;;;;;4.88;1.17;;;24.60;38.80;;;;;;5113839;28;20063;-64
2021/05/10 12:17:13;;;;;;;3.95;1.08;;;24.60;38.80;;;;;;5115352;28;20012;-67
2021/05/10 12:20:02;;;;;;;2.78;1.20;;;24.80;38.60;;;;;;5114681;28;20031;-65
2021/05/10 12:22:37;;;;;;;5.05;1.30;;;25.00;38.90;;;;;;5111919;28;20047;-66
2021/05/10 12:25:24;;;;;;;2.22;0.75;;;25.00;39.00;;;;;;5111836;28;20039;-68
2021/05/10 12:28:17;;;;;;;1.95;0.80;;;24.90;37.10;;;;;;5111950;28;20115;-67
2021/05/10 12:30:49;;;;;;;2.00;0.70;;;24.90;35.30;;;;;;5112202;28;20047;-67
2021/05/10 12:33:18;;;;;;;1.58;0.73;;;24.80;37.50;;;;;;5115224;28;20035;-68
2021/05/10 12:35:54;;;;;;;3.90;1.33;;;24.60;36.40;;;;;;5115304;28;20371;-68
2021/05/10 12:38:27;;;;;;;6.47;0.82;;;24.50;35.80;;;;;;5114905;28;20089;-68
2021/05/10 12:40:53;;;;;;;3.25;0.90;;;24.40;36.40;;;;;;5114830;28;20024;-68
2021/05/10 12:43:21;;;;;;;3.17;0.85;;;24.30;37.90;;;;;;5114738;28;20103;-68
2021/05/10 12:45:59;;;;;;;8.25;1.00;;;24.30;38.80;;;;;;5114495;28;20090;-67
2021/05/10 12:48:34;;;;;;;2.30;1.00;;;24.20;37.30;;;;;;5114850;28;20035;-68
2021/05/10 12:51:08;;;;;;;3.47;0.85;;;24.20;39.40;;;;;;5114160;28;20024;-68
2021/05/10 12:53:38;;;;;;;4.43;1.00;;;24.20;39.10;;;;;;5114361;28;20040;-68
2021/05/10 12:56:09;;;;;;;2.35;0.70;;;24.20;40.10;;;;;;5113447;28;20019;-68
2021/05/10 12:58:40;;;;;;;1.42;0.90;;;24.30;40.40;;;;;;5112571;28;20479;-68
2021/05/10 13:01:22;;;;;;;2.33;0.77;;;24.20;37.50;;;;;;5111349;28;20019;-68
2021/05/10 13:04:01;;;;;;;3.10;0.80;;;24.20;39.70;;;;;;5111810;28;20062;-68